Friday, October 20, 2017, 9:13 PM EDT
Back to Local

KBTP, Butler, Butler County Airport/k W Scholter Field

Location: Renfrew, PA, United States Lat: 40.783
Local Time: 9:13 PM EDT ( 1:13 GMT) Lon: -79.95
Time Zone: US/Eastern Elev: 1246 ft

Show me the last for .
Show Decoded

2017-10-20 20:56 METAR KBTP 210056Z AUTO 00000KT 10SM CLR 12/04 A3024 RMK AO2 SLP250 T01170039 =
2017-10-20 19:56 METAR KBTP 202356Z AUTO 00000KT 10SM CLR 13/04 A3024 RMK AO2 SLP251 T01280039
                 10211 20128 56002 =
2017-10-20 18:56 METAR KBTP 202256Z AUTO 00000KT 10SM CLR 16/03 A3024 RMK AO2 SLP249 T01610033 =
2017-10-20 16:56 METAR KBTP 202056Z AUTO 18003KT 10SM CLR 21/03 A3025 RMK AO2 SLP249 T02110028
                 56008 =
2017-10-20 15:56 METAR KBTP 201956Z AUTO VRB03KT 10SM CLR 21/02 A3026 RMK AO2 SLP250 T02060017 =
2017-10-20 14:56 METAR KBTP 201856Z AUTO 01003KT 4SM HZ CLR 20/02 A3026 RMK AO2 SLP253 T02000017
                 =
2017-10-20 13:56 METAR KBTP 201756Z AUTO 00000KT 10SM CLR 19/01 A3028 RMK AO2 SLP257 T01890011
                 10194 20061 58017 =
2017-10-20 12:56 METAR KBTP 201656Z AUTO 02005KT 10SM CLR 18/01 A3030 RMK AO2 SLP266 T01830006 =
2017-10-20 11:56 METAR KBTP 201556Z AUTO VRB03KT 10SM CLR 17/05 A3032 RMK AO2 SLP273 T01720050 =
2017-10-20 10:56 METAR KBTP 201456Z AUTO 03005KT 10SM CLR 16/06 A3033 RMK AO2 SLP275 T01560061
                 51014 =
2017-10-20 09:56 METAR KBTP 201356Z AUTO 00000KT 10SM CLR 12/09 A3033 RMK AO2 SLP276 T01220094 =
2017-10-20 08:56 METAR KBTP 201256Z AUTO 00000KT 5SM BR CLR 09/08 A3032 RMK AO2 SLP274 T00890083
                 =
2017-10-20 08:29 METAR KBTP 201229Z AUTO 00000KT 3SM BR CLR 06/06 A3030 RMK AO2 =
2017-10-20 08:26 METAR KBTP 201226Z AUTO 00000KT 1 1/4SM BR CLR 06/06 A3030 RMK AO2 VIS 1/4V5 =
2017-10-20 08:16 METAR KBTP 201216Z AUTO 25003KT 3/4SM BR CLR 06/06 A3029 RMK AO2 VIS 1/4V2 1/2
                 RVRNO =
2017-10-20 07:56 METAR KBTP 201156Z AUTO 00000KT 1/4SM FG CLR 07/07 A3029 RMK AO2 SLP264
                 T00670067 10111 20061 51021 RVRNO =
2017-10-20 07:27 METAR KBTP 201127Z AUTO 00000KT 1/4SM FG CLR 07/06 A3028 RMK AO2 VIS M1/4V5
                 RVRNO =
2017-10-20 07:25 METAR KBTP 201125Z AUTO 00000KT 1 1/4SM BR CLR 07/06 A3027 RMK AO2 VIS 1/4V5 =
2017-10-20 06:56 METAR KBTP 201056Z AUTO 00000KT 4SM BR CLR 07/07 A3027 RMK AO2 SLP257 T00670067
                 =
2017-10-20 06:48 METAR KBTP 201048Z AUTO 00000KT 3SM BR CLR 07/06 A3026 RMK AO2 =
2017-10-20 06:41 METAR KBTP 201041Z AUTO 00000KT 1SM BR CLR 07/07 A3026 RMK AO2 VIS 1/2V5 RVRNO =
2017-10-20 06:34 METAR KBTP 201034Z AUTO 00000KT 1/2SM FG CLR 07/07 A3026 RMK AO2 VIS 1/4V1 1/4
                 RVRNO =
2017-10-20 06:25 METAR KBTP 201025Z AUTO 00000KT 3/4SM BR CLR 07/07 A3026 RMK AO2 VIS 1/4V4 RVRNO
                 =
2017-10-20 06:11 METAR KBTP 201011Z AUTO 00000KT 1 3/4SM BR CLR 07/07 A3025 RMK AO2 VIS 3/4V5
                 TSNO =
2017-10-20 05:56 METAR KBTP 200956Z AUTO 00000KT 7SM CLR 08/07 A3025 RMK AO2 SLP248 T00780072 =
2017-10-20 04:56 METAR KBTP 200856Z AUTO 00000KT 10SM CLR 08/07 A3022 RMK AO2 SLP240 T00830072
                 53006 =
2017-10-20 03:56 METAR KBTP 200756Z AUTO 00000KT 10SM CLR 10/08 A3021 RMK AO2 SLP235 T01000078 =
2017-10-20 02:56 METAR KBTP 200656Z AUTO 00000KT 10SM CLR 11/08 A3020 RMK AO2 SLP231 T01060083 =
2017-10-20 01:56 METAR KBTP 200556Z AUTO 00000KT 10SM CLR 11/08 A3020 RMK AO2 SLP232 T01110078
                 10167 20106 50007 =
2017-10-20 00:56 METAR KBTP 200456Z AUTO 00000KT 10SM CLR 12/08 A3020 RMK AO2 SLP233 T01170078 =
2017-10-19 23:56 METAR KBTP 200356Z AUTO 24005KT 10SM CLR 13/08 A3019 RMK AO2 SLP228 T01330078 =
2017-10-19 22:56 METAR KBTP 200256Z AUTO 23003KT 10SM CLR 14/08 A3018 RMK AO2 SLP224 T01440078
                 53002 =
2017-10-19 21:56 METAR KBTP 200156Z AUTO 22005KT 10SM CLR 15/08 A3018 RMK AO2 SLP224 T01500083 =

Support USWX by starting your Amazon purchase here.